createdAt,value
2023-05-02T00:04:02.106Z,10.20
2023-05-02T00:14:08.726Z,11.20
2023-05-02T00:24:12.374Z,11.40
2023-05-02T00:34:16.096Z,10.80
2023-05-02T00:44:19.632Z,12.00
2023-05-02T00:54:44.567Z,10.90
2023-05-02T01:04:57.142Z,11.40
2023-05-02T01:16:03.593Z,11.40
2023-05-02T01:26:50.039Z,12.20
2023-05-02T01:36:58.097Z,11.20
2023-05-02T01:48:05.193Z,12.10
2023-05-02T01:58:12.342Z,11.60
2023-05-02T02:08:16.287Z,11.60
2023-05-02T02:18:26.735Z,10.90
2023-05-02T02:28:31.104Z,11.40
2023-05-02T02:38:49.125Z,11.00
2023-05-02T02:49:12.862Z,13.00
2023-05-02T02:59:29.099Z,10.70
2023-05-02T03:10:28.188Z,10.30
2023-05-02T03:20:31.921Z,11.70
2023-05-02T03:30:40.934Z,12.30
2023-05-02T03:40:45.004Z,12.00
2023-05-02T03:50:53.199Z,12.70
2023-05-02T04:00:57.186Z,19.70
2023-05-02T04:11:04.721Z,14.50
2023-05-02T04:21:11.739Z,11.20
2023-05-02T04:31:36.288Z,11.90
2023-05-02T04:42:19.949Z,11.70
2023-05-02T04:52:44.789Z,10.50
2023-05-02T05:02:48.752Z,10.40
2023-05-02T05:12:53.784Z,11.30
2023-05-02T05:23:59.325Z,12.00
2023-05-02T05:34:05.696Z,11.50
2023-05-02T05:44:11.754Z,10.80
2023-05-02T05:54:18.724Z,12.60
2023-05-02T06:04:22.624Z,9.60
2023-05-02T06:14:28.802Z,10.30
2023-05-02T06:24:32.790Z,10.60
2023-05-02T06:34:46.135Z,10.50
2023-05-02T06:44:51.796Z,10.50
2023-05-02T06:54:57.232Z,10.50
2023-05-02T07:05:03.024Z,10.10
2023-05-02T07:15:08.974Z,9.90
2023-05-02T07:25:12.557Z,10.60
2023-05-02T07:35:16.434Z,10.10
2023-05-02T07:45:24.855Z,9.50
2023-05-02T07:55:28.969Z,10.20
2023-05-02T08:05:32.900Z,9.70
2023-05-02T08:15:39.258Z,10.60
2023-05-02T08:25:42.898Z,10.50
2023-05-02T08:35:46.568Z,10.00
2023-05-02T08:45:52.956Z,9.40
2023-05-02T08:56:16.870Z,10.90
2023-05-02T09:06:41.331Z,13.70
2023-05-02T09:16:45.316Z,9.60
2023-05-02T09:27:32.756Z,12.20
2023-05-02T09:37:36.789Z,7.90
2023-05-02T09:47:41.685Z,10.30
2023-05-02T09:57:45.452Z,9.40
2023-05-02T10:07:49.608Z,9.60
2023-05-02T10:17:57.089Z,11.70
2023-05-02T10:28:01.118Z,9.10
2023-05-02T10:38:06.956Z,9.10
2023-05-02T10:48:57.499Z,11.20
2023-05-02T10:59:30.292Z,11.50
2023-05-02T11:10:24.856Z,11.60
2023-05-02T11:20:31.843Z,10.40
2023-05-02T11:30:58.849Z,9.40
2023-05-02T11:41:04.574Z,10.00
2023-05-02T11:51:08.602Z,7.90
2023-05-02T12:01:17.398Z,8.70
2023-05-02T12:11:21.901Z,7.20
2023-05-02T12:21:35.968Z,7.30
2023-05-02T12:31:40.494Z,5.90
2023-05-02T12:42:12.119Z,6.00
2023-05-02T12:52:15.819Z,7.70
2023-05-02T13:02:19.533Z,6.20
2023-05-02T13:12:25.161Z,6.60
2023-05-02T13:22:29.867Z,6.30
2023-05-02T13:32:33.648Z,6.00
2023-05-02T13:42:37.490Z,6.80
2023-05-02T13:52:41.866Z,7.50
2023-05-02T14:02:48.696Z,8.80
2023-05-02T14:13:12.223Z,10.60
2023-05-02T14:23:36.229Z,10.20
2023-05-02T14:33:39.958Z,9.70
2023-05-02T14:43:43.555Z,8.60
2023-05-02T14:53:50.932Z,8.70
2023-05-02T15:14:03.159Z,7.20
2023-05-02T15:24:07.785Z,6.80
2023-05-02T15:34:11.902Z,6.10
2023-05-02T15:44:15.828Z,6.10
2023-05-02T15:54:41.323Z,5.80
2023-05-02T16:04:45.352Z,5.30
2023-05-02T16:14:49.107Z,5.30
2023-05-02T16:24:52.907Z,6.10
2023-05-02T16:34:56.785Z,7.10
2023-05-02T16:45:02.801Z,5.50
2023-05-02T16:55:06.868Z,6.20
2023-05-02T17:05:11.480Z,6.20
2023-05-02T17:15:16.329Z,5.20
2023-05-02T17:25:20.929Z,4.00
2023-05-02T17:35:24.833Z,5.40
2023-05-02T17:45:31.419Z,3.40
2023-05-02T17:55:39.194Z,4.00
2023-05-02T18:05:44.943Z,4.20
2023-05-02T18:15:59.963Z,4.60
2023-05-02T18:26:04.357Z,5.00
2023-05-02T18:36:10.294Z,3.00
2023-05-02T18:46:14.114Z,3.30
2023-05-02T18:56:21.728Z,3.10
2023-05-02T19:06:26.408Z,2.40
2023-05-02T19:16:31.784Z,2.40
2023-05-02T19:26:56.119Z,2.20
2023-05-02T19:36:59.780Z,4.60
2023-05-02T19:47:04.129Z,4.40
2023-05-02T19:57:09.324Z,7.20
2023-05-02T20:07:13.182Z,8.00
2023-05-02T20:17:18.448Z,5.50
2023-05-02T20:28:04.373Z,3.40
2023-05-02T20:38:12.275Z,3.70
2023-05-02T20:48:18.515Z,4.80
2023-05-02T20:58:25.006Z,5.80
2023-05-02T21:08:28.696Z,5.20
2023-05-02T21:18:42.031Z,5.40
2023-05-02T21:29:26.194Z,5.10
2023-05-02T21:40:12.509Z,5.10
2023-05-02T21:50:17.995Z,4.90
2023-05-02T22:00:21.815Z,5.20
2023-05-02T22:10:25.649Z,5.20
2023-05-02T22:20:29.323Z,4.90
2023-05-02T22:30:35.139Z,4.80
2023-05-02T22:41:38.860Z,4.40
2023-05-02T22:51:47.130Z,4.20
2023-05-02T23:01:51.076Z,5.10
2023-05-02T23:11:59.826Z,8.40
2023-05-02T23:22:03.685Z,18.70
2023-05-02T23:33:08.159Z,5.40
2023-05-02T23:44:12.596Z,5.60
2023-05-02T23:54:38.362Z,6.60
